sensor_id;sensor_type;location;lat;lon;timestamp;P1;durP1;ratioP1;P2;durP2;ratioP2
49488;SDS011;35382;51.484;11.476;2023-03-01T00:00:50;17.98;;;10.00;;
49488;SDS011;35382;51.484;11.476;2023-03-01T00:02:31;15.68;;;10.00;;
49488;SDS011;35382;51.484;11.476;2023-03-01T00:04:12;18.45;;;9.95;;
49488;SDS011;35382;51.484;11.476;2023-03-01T00:05:53;16.35;;;9.90;;
49488;SDS011;35382;51.484;11.476;2023-03-01T00:07:34;19.48;;;10.27;;
49488;SDS011;35382;51.484;11.476;2023-03-01T00:09:15;19.17;;;9.55;;
49488;SDS011;35382;51.484;11.476;2023-03-01T00:11:01;18.50;;;9.82;;
49488;SDS011;35382;51.484;11.476;2023-03-01T00:12:53;16.92;;;10.48;;
49488;SDS011;35382;51.484;11.476;2023-03-01T00:14:35;17.50;;;9.85;;
49488;SDS011;35382;51.484;11.476;2023-03-01T00:16:24;15.88;;;8.80;;
49488;SDS011;35382;51.484;11.476;2023-03-01T00:18:07;16.13;;;8.88;;
49488;SDS011;35382;51.484;11.476;2023-03-01T00:19:48;15.38;;;9.15;;
49488;SDS011;35382;51.484;11.476;2023-03-01T00:21:29;18.48;;;9.65;;
49488;SDS011;35382;51.484;11.476;2023-03-01T00:23:10;16.85;;;9.90;;
49488;SDS011;35382;51.484;11.476;2023-03-01T00:24:51;17.08;;;8.95;;
49488;SDS011;35382;51.484;11.476;2023-03-01T00:26:32;16.13;;;8.98;;
49488;SDS011;35382;51.484;11.476;2023-03-01T00:28:14;16.42;;;9.50;;
49488;SDS011;35382;51.484;11.476;2023-03-01T00:29:55;14.98;;;8.98;;
49488;SDS011;35382;51.484;11.476;2023-03-01T00:31:36;17.85;;;8.93;;
49488;SDS011;35382;51.484;11.476;2023-03-01T00:33:17;17.75;;;8.73;;
49488;SDS011;35382;51.484;11.476;2023-03-01T00:34:58;14.98;;;8.73;;
49488;SDS011;35382;51.484;11.476;2023-03-01T00:36:39;18.15;;;9.85;;
49488;SDS011;35382;51.484;11.476;2023-03-01T00:38:20;16.80;;;8.88;;
49488;SDS011;35382;51.484;11.476;2023-03-01T00:40:01;15.05;;;8.43;;
49488;SDS011;35382;51.484;11.476;2023-03-01T00:41:44;16.70;;;8.75;;
49488;SDS011;35382;51.484;11.476;2023-03-01T00:43:25;14.05;;;8.23;;
49488;SDS011;35382;51.484;11.476;2023-03-01T00:45:06;14.65;;;8.82;;
49488;SDS011;35382;51.484;11.476;2023-03-01T00:46:48;13.85;;;8.55;;
49488;SDS011;35382;51.484;11.476;2023-03-01T00:48:29;15.80;;;8.45;;
49488;SDS011;35382;51.484;11.476;2023-03-01T00:50:10;14.48;;;8.75;;
49488;SDS011;35382;51.484;11.476;2023-03-01T00:51:52;15.40;;;9.32;;
49488;SDS011;35382;51.484;11.476;2023-03-01T00:53:33;14.07;;;8.55;;
49488;SDS011;35382;51.484;11.476;2023-03-01T00:55:14;19.92;;;9.00;;
49488;SDS011;35382;51.484;11.476;2023-03-01T00:56:55;16.25;;;8.82;;
49488;SDS011;35382;51.484;11.476;2023-03-01T00:58:36;15.02;;;8.63;;
49488;SDS011;35382;51.484;11.476;2023-03-01T01:00:18;16.00;;;8.77;;
49488;SDS011;35382;51.484;11.476;2023-03-01T01:02:01;13.57;;;8.23;;
49488;SDS011;35382;51.484;11.476;2023-03-01T01:03:46;16.60;;;8.90;;
49488;SDS011;35382;51.484;11.476;2023-03-01T01:05:28;14.20;;;8.38;;
49488;SDS011;35382;51.484;11.476;2023-03-01T01:07:09;14.32;;;7.90;;
49488;SDS011;35382;51.484;11.476;2023-03-01T01:08:50;14.40;;;8.00;;
49488;SDS011;35382;51.484;11.476;2023-03-01T01:10:35;14.90;;;8.10;;
49488;SDS011;35382;51.484;11.476;2023-03-01T01:12:16;12.82;;;7.72;;
49488;SDS011;35382;51.484;11.476;2023-03-01T01:13:57;14.38;;;8.05;;
49488;SDS011;35382;51.484;11.476;2023-03-01T01:15:38;13.18;;;7.68;;
49488;SDS011;35382;51.484;11.476;2023-03-01T01:17:22;15.88;;;8.10;;
49488;SDS011;35382;51.484;11.476;2023-03-01T01:19:03;12.10;;;7.45;;
49488;SDS011;35382;51.484;11.476;2023-03-01T01:20:44;12.95;;;7.55;;
49488;SDS011;35382;51.484;11.476;2023-03-01T01:22:25;13.43;;;7.82;;
49488;SDS011;35382;51.484;11.476;2023-03-01T01:24:06;14.30;;;7.95;;
49488;SDS011;35382;51.484;11.476;2023-03-01T01:25:47;14.63;;;7.68;;
49488;SDS011;35382;51.484;11.476;2023-03-01T01:27:29;12.52;;;7.70;;
49488;SDS011;35382;51.484;11.476;2023-03-01T01:29:10;12.85;;;7.35;;
49488;SDS011;35382;51.484;11.476;2023-03-01T01:30:51;14.73;;;7.47;;
49488;SDS011;35382;51.484;11.476;2023-03-01T01:32:32;13.98;;;7.55;;
49488;SDS011;35382;51.484;11.476;2023-03-01T01:34:15;11.00;;;6.85;;
49488;SDS011;35382;51.484;11.476;2023-03-01T01:35:58;15.25;;;7.45;;
49488;SDS011;35382;51.484;11.476;2023-03-01T01:37:39;13.70;;;8.60;;
49488;SDS011;35382;51.484;11.476;2023-03-01T01:39:20;16.50;;;7.82;;
49488;SDS011;35382;51.484;11.476;2023-03-01T01:41:02;13.65;;;7.43;;
49488;SDS011;35382;51.484;11.476;2023-03-01T01:42:44;15.40;;;7.80;;
49488;SDS011;35382;51.484;11.476;2023-03-01T01:44:26;13.80;;;7.95;;
49488;SDS011;35382;51.484;11.476;2023-03-01T01:48:04;15.00;;;7.65;;
49488;SDS011;35382;51.484;11.476;2023-03-01T01:49:54;11.85;;;7.45;;
49488;SDS011;35382;51.484;11.476;2023-03-01T01:51:37;15.85;;;8.32;;
49488;SDS011;35382;51.484;11.476;2023-03-01T01:53:21;14.00;;;7.82;;
49488;SDS011;35382;51.484;11.476;2023-03-01T01:55:05;17.70;;;8.43;;
49488;SDS011;35382;51.484;11.476;2023-03-01T01:56:53;12.77;;;7.28;;
49488;SDS011;35382;51.484;11.476;2023-03-01T01:58:38;14.07;;;7.40;;
49488;SDS011;35382;51.484;11.476;2023-03-01T02:00:22;15.18;;;7.82;;
49488;SDS011;35382;51.484;11.476;2023-03-01T02:02:05;11.30;;;7.38;;
49488;SDS011;35382;51.484;11.476;2023-03-01T02:03:46;14.48;;;7.78;;
49488;SDS011;35382;51.484;11.476;2023-03-01T02:07:16;16.55;;;8.10;;
49488;SDS011;35382;51.484;11.476;2023-03-01T02:09:03;11.20;;;7.25;;
49488;SDS011;35382;51.484;11.476;2023-03-01T02:10:49;13.85;;;7.60;;
49488;SDS011;35382;51.484;11.476;2023-03-01T02:12:30;12.82;;;6.72;;
49488;SDS011;35382;51.484;11.476;2023-03-01T02:14:12;12.70;;;7.63;;
49488;SDS011;35382;51.484;11.476;2023-03-01T02:15:53;14.70;;;7.78;;
49488;SDS011;35382;51.484;11.476;2023-03-01T02:17:34;15.07;;;7.78;;
49488;SDS011;35382;51.484;11.476;2023-03-01T02:19:52;14.98;;;7.43;;
49488;SDS011;35382;51.484;11.476;2023-03-01T02:21:33;13.02;;;7.82;;
49488;SDS011;35382;51.484;11.476;2023-03-01T02:23:24;14.15;;;7.15;;
49488;SDS011;35382;51.484;11.476;2023-03-01T02:26:59;12.05;;;7.10;;
49488;SDS011;35382;51.484;11.476;2023-03-01T02:28:41;13.40;;;7.35;;
49488;SDS011;35382;51.484;11.476;2023-03-01T02:30:24;12.35;;;7.82;;
49488;SDS011;35382;51.484;11.476;2023-03-01T02:32:06;13.55;;;7.75;;
49488;SDS011;35382;51.484;11.476;2023-03-01T02:33:47;12.95;;;7.88;;
49488;SDS011;35382;51.484;11.476;2023-03-01T02:35:32;14.20;;;7.93;;
49488;SDS011;35382;51.484;11.476;2023-03-01T02:37:16;14.38;;;7.55;;
49488;SDS011;35382;51.484;11.476;2023-03-01T02:39:01;13.45;;;7.43;;
49488;SDS011;35382;51.484;11.476;2023-03-01T02:40:44;13.70;;;7.40;;
49488;SDS011;35382;51.484;11.476;2023-03-01T02:42:27;16.05;;;8.35;;
49488;SDS011;35382;51.484;11.476;2023-03-01T02:44:16;14.70;;;8.63;;
49488;SDS011;35382;51.484;11.476;2023-03-01T02:45:58;15.52;;;8.02;;
49488;SDS011;35382;51.484;11.476;2023-03-01T02:47:42;12.85;;;7.75;;
49488;SDS011;35382;51.484;11.476;2023-03-01T02:49:33;11.60;;;7.55;;
49488;SDS011;35382;51.484;11.476;2023-03-01T02:55:36;14.30;;;7.57;;
49488;SDS011;35382;51.484;11.476;2023-03-01T02:57:18;14.65;;;7.90;;
49488;SDS011;35382;51.484;11.476;2023-03-01T02:59:00;13.35;;;7.47;;
49488;SDS011;35382;51.484;11.476;2023-03-01T03:00:43;13.15;;;7.55;;
49488;SDS011;35382;51.484;11.476;2023-03-01T03:02:29;15.30;;;7.72;;
49488;SDS011;35382;51.484;11.476;2023-03-01T03:04:22;13.63;;;7.32;;
49488;SDS011;35382;51.484;11.476;2023-03-01T03:06:04;12.00;;;6.97;;
49488;SDS011;35382;51.484;11.476;2023-03-01T03:07:46;12.77;;;7.38;;
49488;SDS011;35382;51.484;11.476;2023-03-01T03:09:28;12.48;;;7.25;;
49488;SDS011;35382;51.484;11.476;2023-03-01T03:11:10;12.27;;;7.00;;
49488;SDS011;35382;51.484;11.476;2023-03-01T03:12:55;15.65;;;7.70;;
49488;SDS011;35382;51.484;11.476;2023-03-01T03:14:41;12.05;;;6.78;;
49488;SDS011;35382;51.484;11.476;2023-03-01T03:16:22;14.65;;;7.68;;
49488;SDS011;35382;51.484;11.476;2023-03-01T03:18:04;11.55;;;6.68;;
49488;SDS011;35382;51.484;11.476;2023-03-01T03:19:47;11.77;;;7.90;;
49488;SDS011;35382;51.484;11.476;2023-03-01T03:21:28;11.00;;;7.13;;
49488;SDS011;35382;51.484;11.476;2023-03-01T03:23:09;12.10;;;7.40;;
49488;SDS011;35382;51.484;11.476;2023-03-01T03:24:50;13.57;;;6.97;;
49488;SDS011;35382;51.484;11.476;2023-03-01T03:26:31;13.80;;;6.80;;
49488;SDS011;35382;51.484;11.476;2023-03-01T03:28:12;14.77;;;7.90;;
49488;SDS011;35382;51.484;11.476;2023-03-01T03:29:53;12.32;;;7.18;;
49488;SDS011;35382;51.484;11.476;2023-03-01T03:31:34;13.63;;;7.40;;
49488;SDS011;35382;51.484;11.476;2023-03-01T03:33:15;14.82;;;7.60;;
49488;SDS011;35382;51.484;11.476;2023-03-01T03:34:56;12.98;;;7.28;;
49488;SDS011;35382;51.484;11.476;2023-03-01T03:36:37;13.43;;;7.00;;
49488;SDS011;35382;51.484;11.476;2023-03-01T03:38:18;13.48;;;8.18;;
49488;SDS011;35382;51.484;11.476;2023-03-01T03:40:02;14.05;;;7.93;;
49488;SDS011;35382;51.484;11.476;2023-03-01T03:41:43;14.27;;;7.80;;
49488;SDS011;35382;51.484;11.476;2023-03-01T03:43:24;13.48;;;7.40;;
49488;SDS011;35382;51.484;11.476;2023-03-01T03:45:07;13.00;;;7.78;;
49488;SDS011;35382;51.484;11.476;2023-03-01T03:46:49;14.85;;;7.50;;
49488;SDS011;35382;51.484;11.476;2023-03-01T03:48:29;14.73;;;7.75;;
49488;SDS011;35382;51.484;11.476;2023-03-01T03:50:11;13.90;;;7.10;;
49488;SDS011;35382;51.484;11.476;2023-03-01T03:51:53;12.63;;;7.20;;
49488;SDS011;35382;51.484;11.476;2023-03-01T03:53:34;14.80;;;8.60;;
49488;SDS011;35382;51.484;11.476;2023-03-01T03:55:15;13.90;;;8.18;;
49488;SDS011;35382;51.484;11.476;2023-03-01T03:56:59;11.23;;;7.00;;
49488;SDS011;35382;51.484;11.476;2023-03-01T03:58:40;14.18;;;7.65;;
49488;SDS011;35382;51.484;11.476;2023-03-01T04:00:21;13.40;;;8.18;;
49488;SDS011;35382;51.484;11.476;2023-03-01T04:02:04;14.55;;;8.75;;
49488;SDS011;35382;51.484;11.476;2023-03-01T04:03:46;14.77;;;8.82;;
49488;SDS011;35382;51.484;11.476;2023-03-01T04:05:27;15.00;;;8.43;;
49488;SDS011;35382;51.484;11.476;2023-03-01T04:07:08;16.30;;;7.90;;
49488;SDS011;35382;51.484;11.476;2023-03-01T04:08:49;13.70;;;7.15;;
49488;SDS011;35382;51.484;11.476;2023-03-01T04:10:32;14.02;;;8.68;;
49488;SDS011;35382;51.484;11.476;2023-03-01T04:12:17;13.40;;;7.63;;
49488;SDS011;35382;51.484;11.476;2023-03-01T04:14:03;17.13;;;7.80;;
49488;SDS011;35382;51.484;11.476;2023-03-01T04:15:45;15.00;;;8.23;;
49488;SDS011;35382;51.484;11.476;2023-03-01T04:17:27;14.10;;;7.60;;
49488;SDS011;35382;51.484;11.476;2023-03-01T04:19:08;13.32;;;7.50;;
49488;SDS011;35382;51.484;11.476;2023-03-01T04:20:50;13.80;;;8.05;;
49488;SDS011;35382;51.484;11.476;2023-03-01T04:22:34;14.77;;;7.80;;
49488;SDS011;35382;51.484;11.476;2023-03-01T04:24:15;14.02;;;8.18;;
49488;SDS011;35382;51.484;11.476;2023-03-01T04:25:57;15.57;;;8.10;;
49488;SDS011;35382;51.484;11.476;2023-03-01T04:27:39;14.43;;;8.30;;
49488;SDS011;35382;51.484;11.476;2023-03-01T04:29:20;16.38;;;8.15;;
49488;SDS011;35382;51.484;11.476;2023-03-01T04:31:03;13.95;;;8.10;;
49488;SDS011;35382;51.484;11.476;2023-03-01T04:32:53;14.95;;;8.18;;
49488;SDS011;35382;51.484;11.476;2023-03-01T04:34:34;13.00;;;7.97;;
49488;SDS011;35382;51.484;11.476;2023-03-01T04:36:15;12.32;;;7.65;;
49488;SDS011;35382;51.484;11.476;2023-03-01T04:37:57;15.50;;;8.38;;
49488;SDS011;35382;51.484;11.476;2023-03-01T04:39:38;16.52;;;8.50;;
49488;SDS011;35382;51.484;11.476;2023-03-01T04:41:26;14.57;;;8.93;;
49488;SDS011;35382;51.484;11.476;2023-03-01T04:43:10;16.08;;;8.68;;
49488;SDS011;35382;51.484;11.476;2023-03-01T04:44:53;13.88;;;8.57;;
49488;SDS011;35382;51.484;11.476;2023-03-01T04:46:35;14.63;;;8.27;;
49488;SDS011;35382;51.484;11.476;2023-03-01T04:48:16;17.88;;;9.32;;
49488;SDS011;35382;51.484;11.476;2023-03-01T04:49:57;13.27;;;8.32;;
49488;SDS011;35382;51.484;11.476;2023-03-01T04:51:38;16.48;;;10.20;;
49488;SDS011;35382;51.484;11.476;2023-03-01T04:53:19;16.27;;;9.70;;
49488;SDS011;35382;51.484;11.476;2023-03-01T04:54:59;14.75;;;9.70;;
49488;SDS011;35382;51.484;11.476;2023-03-01T04:56:40;15.05;;;9.60;;
49488;SDS011;35382;51.484;11.476;2023-03-01T04:58:22;14.93;;;9.40;;
49488;SDS011;35382;51.484;11.476;2023-03-01T05:00:06;18.45;;;10.27;;
49488;SDS011;35382;51.484;11.476;2023-03-01T05:02:00;17.02;;;8.73;;
49488;SDS011;35382;51.484;11.476;2023-03-01T05:03:45;16.85;;;9.25;;
49488;SDS011;35382;51.484;11.476;2023-03-01T05:07:17;19.35;;;9.27;;
49488;SDS011;35382;51.484;11.476;2023-03-01T05:09:01;17.20;;;9.07;;
49488;SDS011;35382;51.484;11.476;2023-03-01T05:10:43;16.85;;;9.07;;
49488;SDS011;35382;51.484;11.476;2023-03-01T05:12:26;16.90;;;10.15;;
49488;SDS011;35382;51.484;11.476;2023-03-01T05:14:08;20.00;;;10.48;;
49488;SDS011;35382;51.484;11.476;2023-03-01T05:15:59;16.35;;;9.70;;
49488;SDS011;35382;51.484;11.476;2023-03-01T05:17:41;17.60;;;10.05;;
49488;SDS011;35382;51.484;11.476;2023-03-01T05:19:22;18.75;;;10.82;;
49488;SDS011;35382;51.484;11.476;2023-03-01T05:21:07;16.55;;;9.77;;
49488;SDS011;35382;51.484;11.476;2023-03-01T05:22:54;20.17;;;10.23;;
49488;SDS011;35382;51.484;11.476;2023-03-01T05:24:36;17.60;;;10.40;;
49488;SDS011;35382;51.484;11.476;2023-03-01T05:26:20;15.90;;;9.73;;
49488;SDS011;35382;51.484;11.476;2023-03-01T05:28:02;18.25;;;9.80;;
49488;SDS011;35382;51.484;11.476;2023-03-01T05:29:49;18.20;;;10.55;;
49488;SDS011;35382;51.484;11.476;2023-03-01T05:31:30;16.95;;;10.35;;
49488;SDS011;35382;51.484;11.476;2023-03-01T05:33:11;16.95;;;10.45;;
49488;SDS011;35382;51.484;11.476;2023-03-01T05:34:55;17.55;;;10.35;;
49488;SDS011;35382;51.484;11.476;2023-03-01T05:36:36;17.95;;;10.05;;
49488;SDS011;35382;51.484;11.476;2023-03-01T05:38:19;17.00;;;9.68;;
49488;SDS011;35382;51.484;11.476;2023-03-01T05:40:01;20.30;;;10.52;;
49488;SDS011;35382;51.484;11.476;2023-03-01T05:41:43;16.08;;;9.13;;
49488;SDS011;35382;51.484;11.476;2023-03-01T05:43:24;14.88;;;9.45;;
49488;SDS011;35382;51.484;11.476;2023-03-01T05:45:05;18.38;;;9.82;;
49488;SDS011;35382;51.484;11.476;2023-03-01T05:46:50;18.30;;;9.50;;
49488;SDS011;35382;51.484;11.476;2023-03-01T05:48:30;16.45;;;9.52;;
49488;SDS011;35382;51.484;11.476;2023-03-01T05:52:03;19.33;;;10.60;;
49488;SDS011;35382;51.484;11.476;2023-03-01T05:53:44;18.40;;;9.48;;
49488;SDS011;35382;51.484;11.476;2023-03-01T05:55:25;21.58;;;10.55;;
49488;SDS011;35382;51.484;11.476;2023-03-01T05:57:06;18.83;;;10.93;;
49488;SDS011;35382;51.484;11.476;2023-03-01T05:58:47;18.83;;;9.77;;
49488;SDS011;35382;51.484;11.476;2023-03-01T06:00:29;18.40;;;10.55;;
49488;SDS011;35382;51.484;11.476;2023-03-01T06:02:11;18.55;;;10.30;;
49488;SDS011;35382;51.484;11.476;2023-03-01T06:03:51;17.95;;;10.07;;
49488;SDS011;35382;51.484;11.476;2023-03-01T06:05:33;16.40;;;10.43;;
49488;SDS011;35382;51.484;11.476;2023-03-01T06:07:13;18.60;;;10.40;;
49488;SDS011;35382;51.484;11.476;2023-03-01T06:08:55;18.13;;;9.90;;
49488;SDS011;35382;51.484;11.476;2023-03-01T06:10:36;19.80;;;10.48;;
49488;SDS011;35382;51.484;11.476;2023-03-01T06:12:17;19.35;;;10.20;;
49488;SDS011;35382;51.484;11.476;2023-03-01T06:13:58;46.28;;;23.67;;
49488;SDS011;35382;51.484;11.476;2023-03-01T06:15:39;24.50;;;12.43;;
49488;SDS011;35382;51.484;11.476;2023-03-01T06:17:20;19.58;;;11.57;;
49488;SDS011;35382;51.484;11.476;2023-03-01T06:19:00;19.48;;;11.55;;
49488;SDS011;35382;51.484;11.476;2023-03-01T06:20:41;18.92;;;11.38;;
49488;SDS011;35382;51.484;11.476;2023-03-01T06:22:22;20.65;;;12.48;;
49488;SDS011;35382;51.484;11.476;2023-03-01T06:24:03;21.80;;;12.70;;
49488;SDS011;35382;51.484;11.476;2023-03-01T06:25:49;22.88;;;13.15;;
49488;SDS011;35382;51.484;11.476;2023-03-01T06:27:32;22.00;;;12.18;;
49488;SDS011;35382;51.484;11.476;2023-03-01T06:29:13;20.02;;;11.07;;
49488;SDS011;35382;51.484;11.476;2023-03-01T06:30:55;20.50;;;11.80;;
49488;SDS011;35382;51.484;11.476;2023-03-01T06:32:36;22.88;;;12.18;;
49488;SDS011;35382;51.484;11.476;2023-03-01T06:34:17;21.65;;;11.75;;
49488;SDS011;35382;51.484;11.476;2023-03-01T06:35:58;18.73;;;11.23;;
49488;SDS011;35382;51.484;11.476;2023-03-01T06:37:40;19.67;;;11.73;;
49488;SDS011;35382;51.484;11.476;2023-03-01T06:39:21;20.92;;;12.77;;
49488;SDS011;35382;51.484;11.476;2023-03-01T06:41:02;18.38;;;12.40;;
49488;SDS011;35382;51.484;11.476;2023-03-01T06:42:46;20.98;;;12.88;;
49488;SDS011;35382;51.484;11.476;2023-03-01T06:44:29;22.10;;;13.63;;
49488;SDS011;35382;51.484;11.476;2023-03-01T06:46:10;23.55;;;13.63;;
49488;SDS011;35382;51.484;11.476;2023-03-01T06:47:51;23.92;;;13.90;;
49488;SDS011;35382;51.484;11.476;2023-03-01T06:49:32;20.10;;;13.13;;
49488;SDS011;35382;51.484;11.476;2023-03-01T06:51:13;20.42;;;12.88;;
49488;SDS011;35382;51.484;11.476;2023-03-01T06:52:57;20.88;;;12.40;;
49488;SDS011;35382;51.484;11.476;2023-03-01T06:54:38;19.98;;;12.20;;
49488;SDS011;35382;51.484;11.476;2023-03-01T06:56:19;20.13;;;11.40;;
49488;SDS011;35382;51.484;11.476;2023-03-01T06:58:02;20.23;;;11.77;;
49488;SDS011;35382;51.484;11.476;2023-03-01T06:59:43;18.60;;;11.52;;
49488;SDS011;35382;51.484;11.476;2023-03-01T07:01:24;22.45;;;12.15;;
49488;SDS011;35382;51.484;11.476;2023-03-01T07:03:05;20.05;;;11.25;;
49488;SDS011;35382;51.484;11.476;2023-03-01T07:04:48;15.90;;;10.57;;
49488;SDS011;35382;51.484;11.476;2023-03-01T07:06:29;19.08;;;12.40;;
49488;SDS011;35382;51.484;11.476;2023-03-01T07:08:10;21.70;;;11.93;;
49488;SDS011;35382;51.484;11.476;2023-03-01T07:09:51;19.63;;;11.60;;
49488;SDS011;35382;51.484;11.476;2023-03-01T07:11:33;19.55;;;12.13;;
49488;SDS011;35382;51.484;11.476;2023-03-01T07:13:14;18.05;;;11.57;;
49488;SDS011;35382;51.484;11.476;2023-03-01T07:14:55;18.98;;;11.75;;
49488;SDS011;35382;51.484;11.476;2023-03-01T07:16:36;20.80;;;12.50;;
49488;SDS011;35382;51.484;11.476;2023-03-01T07:18:17;18.52;;;11.30;;
49488;SDS011;35382;51.484;11.476;2023-03-01T07:19:58;20.00;;;11.43;;
49488;SDS011;35382;51.484;11.476;2023-03-01T07:21:39;18.50;;;11.65;;
49488;SDS011;35382;51.484;11.476;2023-03-01T07:23:20;22.00;;;12.07;;
49488;SDS011;35382;51.484;11.476;2023-03-01T07:25:01;18.83;;;10.98;;
49488;SDS011;35382;51.484;11.476;2023-03-01T07:26:47;19.60;;;11.05;;
49488;SDS011;35382;51.484;11.476;2023-03-01T07:28:29;22.73;;;11.50;;
49488;SDS011;35382;51.484;11.476;2023-03-01T07:30:11;21.25;;;11.32;;
49488;SDS011;35382;51.484;11.476;2023-03-01T07:31:52;19.35;;;11.68;;
49488;SDS011;35382;51.484;11.476;2023-03-01T07:33:33;16.88;;;10.63;;
49488;SDS011;35382;51.484;11.476;2023-03-01T07:35:14;18.58;;;10.70;;
49488;SDS011;35382;51.484;11.476;2023-03-01T07:36:55;17.38;;;10.80;;
49488;SDS011;35382;51.484;11.476;2023-03-01T07:38:36;18.02;;;10.63;;
49488;SDS011;35382;51.484;11.476;2023-03-01T07:40:17;18.48;;;11.32;;
49488;SDS011;35382;51.484;11.476;2023-03-01T07:41:58;21.15;;;11.50;;
49488;SDS011;35382;51.484;11.476;2023-03-01T07:43:39;17.77;;;10.88;;
49488;SDS011;35382;51.484;11.476;2023-03-01T07:45:20;18.17;;;11.40;;
49488;SDS011;35382;51.484;11.476;2023-03-01T07:47:01;16.23;;;9.90;;
49488;SDS011;35382;51.484;11.476;2023-03-01T07:48:41;21.27;;;11.95;;
49488;SDS011;35382;51.484;11.476;2023-03-01T07:50:22;17.48;;;10.55;;
49488;SDS011;35382;51.484;11.476;2023-03-01T07:52:04;19.58;;;10.85;;
49488;SDS011;35382;51.484;11.476;2023-03-01T07:53:48;17.17;;;10.55;;
49488;SDS011;35382;51.484;11.476;2023-03-01T07:55:28;18.70;;;11.77;;
49488;SDS011;35382;51.484;11.476;2023-03-01T07:57:10;19.52;;;11.50;;
49488;SDS011;35382;51.484;11.476;2023-03-01T07:58:51;16.63;;;10.50;;
49488;SDS011;35382;51.484;11.476;2023-03-01T08:00:32;17.92;;;10.18;;
49488;SDS011;35382;51.484;11.476;2023-03-01T08:02:13;19.58;;;11.23;;
49488;SDS011;35382;51.484;11.476;2023-03-01T08:03:56;22.42;;;11.57;;
49488;SDS011;35382;51.484;11.476;2023-03-01T08:05:37;18.58;;;10.63;;
49488;SDS011;35382;51.484;11.476;2023-03-01T08:07:18;18.38;;;9.88;;
49488;SDS011;35382;51.484;11.476;2023-03-01T08:08:59;15.80;;;9.65;;
49488;SDS011;35382;51.484;11.476;2023-03-01T08:10:40;17.83;;;10.93;;
49488;SDS011;35382;51.484;11.476;2023-03-01T08:12:21;16.02;;;9.05;;
49488;SDS011;35382;51.484;11.476;2023-03-01T08:14:02;17.80;;;9.55;;
49488;SDS011;35382;51.484;11.476;2023-03-01T08:15:43;15.23;;;9.65;;
49488;SDS011;35382;51.484;11.476;2023-03-01T08:17:24;15.43;;;10.10;;
49488;SDS011;35382;51.484;11.476;2023-03-01T08:19:05;17.35;;;10.20;;
49488;SDS011;35382;51.484;11.476;2023-03-01T08:20:47;16.98;;;10.13;;
49488;SDS011;35382;51.484;11.476;2023-03-01T08:22:28;19.10;;;9.57;;
49488;SDS011;35382;51.484;11.476;2023-03-01T08:24:09;16.25;;;10.25;;
49488;SDS011;35382;51.484;11.476;2023-03-01T08:25:50;14.43;;;10.07;;
49488;SDS011;35382;51.484;11.476;2023-03-01T08:27:31;15.45;;;9.77;;
49488;SDS011;35382;51.484;11.476;2023-03-01T08:29:15;19.80;;;11.30;;
49488;SDS011;35382;51.484;11.476;2023-03-01T08:30:56;16.60;;;10.07;;
49488;SDS011;35382;51.484;11.476;2023-03-01T08:32:37;15.60;;;9.98;;
49488;SDS011;35382;51.484;11.476;2023-03-01T08:34:19;17.85;;;9.25;;
49488;SDS011;35382;51.484;11.476;2023-03-01T08:36:03;16.02;;;9.38;;
49488;SDS011;35382;51.484;11.476;2023-03-01T08:37:47;15.90;;;9.35;;
49488;SDS011;35382;51.484;11.476;2023-03-01T08:39:28;17.50;;;10.18;;
49488;SDS011;35382;51.484;11.476;2023-03-01T08:41:09;13.98;;;9.27;;
49488;SDS011;35382;51.484;11.476;2023-03-01T08:42:50;18.98;;;10.18;;
49488;SDS011;35382;51.484;11.476;2023-03-01T08:44:31;15.95;;;9.82;;
49488;SDS011;35382;51.484;11.476;2023-03-01T08:46:12;16.50;;;10.23;;
49488;SDS011;35382;51.484;11.476;2023-03-01T08:47:56;18.38;;;9.88;;
49488;SDS011;35382;51.484;11.476;2023-03-01T08:49:37;16.95;;;10.45;;
49488;SDS011;35382;51.484;11.476;2023-03-01T08:51:18;14.85;;;9.95;;
49488;SDS011;35382;51.484;11.476;2023-03-01T08:53:00;16.83;;;9.80;;
49488;SDS011;35382;51.484;11.476;2023-03-01T08:54:41;13.77;;;9.38;;
49488;SDS011;35382;51.484;11.476;2023-03-01T08:56:22;15.85;;;9.77;;
49488;SDS011;35382;51.484;11.476;2023-03-01T08:58:02;17.88;;;10.40;;
49488;SDS011;35382;51.484;11.476;2023-03-01T08:59:45;15.73;;;10.23;;
49488;SDS011;35382;51.484;11.476;2023-03-01T09:01:26;17.70;;;10.13;;
49488;SDS011;35382;51.484;11.476;2023-03-01T09:03:08;17.45;;;11.23;;
49488;SDS011;35382;51.484;11.476;2023-03-01T09:04:49;17.50;;;10.57;;
49488;SDS011;35382;51.484;11.476;2023-03-01T09:06:31;15.60;;;10.38;;
49488;SDS011;35382;51.484;11.476;2023-03-01T09:08:13;16.42;;;10.48;;
49488;SDS011;35382;51.484;11.476;2023-03-01T09:09:54;16.75;;;10.68;;
49488;SDS011;35382;51.484;11.476;2023-03-01T09:11:35;17.17;;;10.75;;
49488;SDS011;35382;51.484;11.476;2023-03-01T09:13:17;15.18;;;10.07;;
49488;SDS011;35382;51.484;11.476;2023-03-01T09:14:58;18.65;;;10.95;;
49488;SDS011;35382;51.484;11.476;2023-03-01T09:16:39;18.10;;;10.38;;
49488;SDS011;35382;51.484;11.476;2023-03-01T09:18:21;17.77;;;10.13;;
49488;SDS011;35382;51.484;11.476;2023-03-01T09:20:03;16.45;;;10.68;;
49488;SDS011;35382;51.484;11.476;2023-03-01T09:21:46;17.48;;;10.55;;
49488;SDS011;35382;51.484;11.476;2023-03-01T09:23:33;17.63;;;9.95;;
49488;SDS011;35382;51.484;11.476;2023-03-01T09:25:17;14.77;;;9.68;;
49488;SDS011;35382;51.484;11.476;2023-03-01T09:26:59;15.50;;;9.57;;
49488;SDS011;35382;51.484;11.476;2023-03-01T09:28:41;17.25;;;9.18;;
49488;SDS011;35382;51.484;11.476;2023-03-01T09:30:22;16.17;;;9.35;;
49488;SDS011;35382;51.484;11.476;2023-03-01T09:32:04;17.10;;;10.25;;
49488;SDS011;35382;51.484;11.476;2023-03-01T09:33:46;14.32;;;9.23;;
49488;SDS011;35382;51.484;11.476;2023-03-01T09:35:28;15.57;;;9.93;;
49488;SDS011;35382;51.484;11.476;2023-03-01T09:37:09;14.85;;;9.23;;
49488;SDS011;35382;51.484;11.476;2023-03-01T09:38:50;16.40;;;9.00;;
49488;SDS011;35382;51.484;11.476;2023-03-01T09:40:33;17.48;;;9.30;;
49488;SDS011;35382;51.484;11.476;2023-03-01T09:42:16;15.07;;;9.45;;
49488;SDS011;35382;51.484;11.476;2023-03-01T09:44:02;16.13;;;8.88;;
49488;SDS011;35382;51.484;11.476;2023-03-01T09:45:50;15.75;;;8.60;;
49488;SDS011;35382;51.484;11.476;2023-03-01T09:47:35;16.60;;;9.38;;
49488;SDS011;35382;51.484;11.476;2023-03-01T09:49:21;15.95;;;8.65;;
49488;SDS011;35382;51.484;11.476;2023-03-01T09:51:27;14.23;;;8.57;;
49488;SDS011;35382;51.484;11.476;2023-03-01T09:53:15;15.52;;;8.48;;
49488;SDS011;35382;51.484;11.476;2023-03-01T09:54:59;14.00;;;7.97;;
49488;SDS011;35382;51.484;11.476;2023-03-01T09:56:41;14.25;;;8.23;;
49488;SDS011;35382;51.484;11.476;2023-03-01T10:00:37;14.80;;;8.30;;
49488;SDS011;35382;51.484;11.476;2023-03-01T10:02:27;14.60;;;8.35;;
49488;SDS011;35382;51.484;11.476;2023-03-01T10:06:31;14.35;;;8.68;;
49488;SDS011;35382;51.484;11.476;2023-03-01T10:08:26;13.25;;;8.27;;
49488;SDS011;35382;51.484;11.476;2023-03-01T10:10:16;15.45;;;8.35;;
49488;SDS011;35382;51.484;11.476;2023-03-01T10:12:10;15.52;;;8.57;;
49488;SDS011;35382;51.484;11.476;2023-03-01T10:14:15;16.70;;;7.90;;